Time;durP1;ratioP1;P1;durP2;ratioP2;P2;SDS_P1;SDS_P2;PMS_P1;PMS_P2;Temp;Humidity;BMP_temperature;BMP_pressure;BME280_temperature;BME280_humidity;BME280_pressure;Samples;Min_cycle;Max_cycle;Signal;HPM_P1;HPM_P2
2023/07/20 00:01:28;;;;;;;6.10;3.42;;;;;;;20.48;93.68;98973.56;5016399;28;20071;-90
2023/07/20 00:03:56;;;;;;;3.10;2.60;;;;;;;20.42;94.37;98975.00;5016056;28;20017;-91
2023/07/20 00:06:24;;;;;;;4.20;2.65;;;;;;;20.31;95.14;98973.44;5034056;28;20061;-91
2023/07/20 00:08:50;;;;;;;4.88;2.75;;;;;;;20.28;96.08;98967.59;5016023;28;20036;-91
2023/07/20 00:11:15;;;;;;;5.10;3.03;;;;;;;20.14;94.97;98953.94;5016162;28;20029;-91
2023/07/20 00:13:41;;;;;;;3.55;2.50;;;;;;;20.00;95.74;98949.13;5016095;28;20052;-91
2023/07/20 00:16:06;;;;;;;3.42;2.28;;;;;;;20.10;96.15;98980.78;5015830;28;20053;-91
2023/07/20 00:18:32;;;;;;;4.63;2.75;;;;;;;20.08;96.55;98983.59;5033829;28;20060;-91
2023/07/20 00:20:58;;;;;;;4.60;3.17;;;;;;;20.05;97.08;98977.75;5015795;28;20022;-91
2023/07/20 00:23:23;;;;;;;3.30;2.67;;;;;;;20.00;97.57;98977.38;5032616;28;20449;-91
2023/07/20 00:25:49;;;;;;;4.38;2.50;;;;;;;19.99;97.89;98973.91;5032203;28;20053;-92
2023/07/20 00:28:14;;;;;;;3.28;2.83;;;;;;;20.01;97.59;98990.44;5015902;28;20030;-91
2023/07/20 00:30:40;;;;;;;4.68;2.80;;;;;;;20.00;97.63;98999.34;5014959;28;20032;-90
2023/07/20 00:33:10;;;;;;;4.45;2.42;;;;;;;19.77;98.50;98974.31;5015556;28;20037;-91
2023/07/20 00:35:35;;;;;;;3.13;2.80;;;;;;;19.94;98.54;98999.94;5015792;28;20032;-91
2023/07/20 00:38:00;;;;;;;5.07;2.70;;;;;;;19.91;98.56;99009.00;5015613;28;20025;-91
2023/07/20 00:40:26;;;;;;;3.35;3.00;;;;;;;19.88;98.19;99009.28;5015700;28;20029;-91
2023/07/20 00:42:52;;;;;;;5.63;3.35;;;;;;;19.88;98.58;99009.28;5015677;28;20071;-91
2023/07/20 00:45:17;;;;;;;5.13;3.13;;;;;;;19.63;99.81;98975.59;5015710;28;20393;-91
2023/07/20 00:47:43;;;;;;;3.60;2.95;;;;;;;19.77;100.00;99008.66;5015733;28;20017;-91
2023/07/20 00:50:10;;;;;;;4.63;3.17;;;;;;;19.76;100.00;98997.22;5015535;28;20505;-91
2023/07/20 00:52:39;;;;;;;5.30;3.15;;;;;;;19.70;100.00;98989.91;5015630;28;20021;-92
2023/07/20 00:55:04;;;;;;;4.15;3.00;;;;;;;19.61;100.00;98986.31;5015314;28;20100;-92
2023/07/20 00:57:30;;;;;;;4.32;2.90;;;;;;;19.65;100.00;98998.25;5015330;28;20461;-91
2023/07/20 00:59:56;;;;;;;5.22;3.13;;;;;;;19.63;100.00;98994.91;5015182;28;20028;-92
2023/07/20 01:02:21;;;;;;;3.70;2.95;;;;;;;19.54;100.00;98982.56;5015727;28;20029;-91
2023/07/20 01:04:47;;;;;;;5.95;3.30;;;;;;;19.51;100.00;98982.00;5015483;28;20100;-91
2023/07/20 01:07:23;;;;;;;4.07;3.05;;;;;;;19.49;100.00;98976.06;5015295;28;20397;-91
2023/07/20 01:09:48;;;;;;;4.13;3.10;;;;;;;19.47;100.00;98976.22;5015445;28;20040;-90
2023/07/20 01:12:22;;;;;;;5.13;3.10;;;;;;;19.45;100.00;98975.50;5015028;28;20021;-91
2023/07/20 01:14:49;;;;;;;3.90;3.03;;;;;;;19.39;100.00;98976.09;5032878;28;20029;-91
2023/07/20 01:17:14;;;;;;;3.30;3.00;;;;;;;19.39;100.00;98973.44;5014668;28;20076;-91
2023/07/20 01:19:39;;;;;;;4.15;3.10;;;;;;;19.29;100.00;98957.63;5015088;28;20017;-91
2023/07/20 01:22:36;;;;;;;3.78;3.30;;;;;;;19.42;100.00;98981.91;5014914;28;20021;-91
2023/07/20 01:25:09;;;;;;;7.38;3.92;;;;;;;19.39;100.00;98987.47;5014802;28;20032;-90
2023/07/20 01:27:49;;;;;;;4.93;3.22;;;;;;;19.35;100.00;98990.56;5015007;28;20495;-91
2023/07/20 01:30:32;;;;;;;5.60;3.33;;;;;;;19.32;100.00;98991.66;4990589;28;20092;-91
2023/07/20 01:32:58;;;;;;;3.60;3.28;;;;;;;19.31;100.00;98986.53;4990331;28;20038;-91
2023/07/20 01:35:29;;;;;;;5.40;3.17;;;;;;;19.27;100.00;98986.00;4974712;28;20046;-91
2023/07/20 01:37:55;;;;;;;4.88;3.17;;;;;;;19.23;100.00;98981.97;4990643;28;20041;-91
2023/07/20 01:40:22;;;;;;;4.88;3.00;;;;;;;19.22;100.00;98988.22;4990899;28;20143;-91
2023/07/20 01:42:48;;;;;;;6.03;3.40;;;;;;;19.04;100.00;98968.78;4951779;28;20042;-91
2023/07/20 01:45:14;;;;;;;6.38;3.22;;;;;;;19.04;100.00;98976.72;4951727;28;20035;-91
2023/07/20 01:47:39;;;;;;;4.05;3.28;;;;;;;18.84;100.00;98957.47;4936026;29;20173;-91
2023/07/20 01:50:06;;;;;;;4.35;2.83;;;;;;;18.94;100.00;98989.94;4951666;28;20446;-92
2023/07/20 01:52:31;;;;;;;5.10;3.13;;;;;;;18.90;100.00;98991.19;4951908;28;20039;-91
2023/07/20 01:54:57;;;;;;;5.00;3.35;;;;;;;18.87;100.00;98996.72;4935733;29;20031;-91
2023/07/20 01:57:22;;;;;;;4.30;3.22;;;;;;;18.82;100.00;99002.44;4951794;29;20140;-91
2023/07/20 01:59:47;;;;;;;4.28;3.08;;;;;;;18.77;100.00;98995.91;4935715;29;20031;-91
2023/07/20 02:02:13;;;;;;;5.38;3.72;;;;;;;18.70;100.00;98998.28;4951346;29;20443;-90
2023/07/20 02:04:38;;;;;;;4.72;3.42;;;;;;;18.63;100.00;98992.69;4951905;28;20553;-91
2023/07/20 02:07:04;;;;;;;4.75;3.65;;;;;;;18.61;100.00;98992.00;4935649;29;20172;-90
2023/07/20 02:09:29;;;;;;;6.03;3.33;;;;;;;18.53;100.00;98989.22;4935591;28;20041;-91
2023/07/20 02:11:54;;;;;;;5.18;3.33;;;;;;;18.56;100.00;99002.13;4935539;29;20392;-91
2023/07/20 02:14:22;;;;;;;4.20;3.47;;;;;;;18.50;100.00;99001.84;4949464;28;20031;-91
2023/07/20 02:16:51;;;;;;;5.45;3.60;;;;;;;18.34;100.00;98987.41;4970551;28;20043;-90
2023/07/20 02:19:17;;;;;;;5.88;3.25;;;;;;;18.39;100.00;98994.91;4954802;28;20069;-92
2023/07/20 02:21:42;;;;;;;5.93;3.45;;;;;;;18.40;100.00;98994.75;4954616;28;20035;-91
2023/07/20 02:24:08;;;;;;;4.18;3.38;;;;;;;18.36;100.00;98988.09;4954471;28;20436;-91
2023/07/20 02:26:33;;;;;;;5.38;4.00;;;;;;;18.39;100.00;99008.09;4954764;28;20029;-91
2023/07/20 02:28:58;;;;;;;4.35;3.42;;;;;;;18.37;100.00;99004.72;4954587;28;20042;-91
2023/07/20 02:31:23;;;;;;;5.70;3.67;;;;;;;18.34;100.00;99002.41;4954710;28;20027;-91
2023/07/20 02:33:49;;;;;;;4.15;3.47;;;;;;;18.27;100.00;98991.53;4999393;28;20121;-91
2023/07/20 02:36:16;;;;;;;4.22;3.75;;;;;;;18.30;100.00;98998.38;5013973;28;20057;-91
2023/07/20 02:38:42;;;;;;;4.97;3.72;;;;;;;18.28;100.00;99000.28;5014146;28;20056;-90
2023/07/20 02:41:07;;;;;;;6.50;3.70;;;;;;;18.24;100.00;98998.88;5013800;28;20425;-91
2023/07/20 02:43:32;;;;;;;8.68;4.43;;;;;;;18.10;100.00;98977.22;5013886;28;20021;-91
2023/07/20 02:45:58;;;;;;;4.70;3.10;;;;;;;18.17;100.00;98986.28;5013691;28;20025;-91
2023/07/20 02:48:23;;;;;;;5.13;4.18;;;;;;;18.14;100.00;98990.97;5014087;28;20026;-91
2023/07/20 02:50:48;;;;;;;5.68;3.70;;;;;;;18.06;100.00;98983.75;5014069;28;20021;-90
2023/07/20 02:53:14;;;;;;;6.03;3.83;;;;;;;17.97;100.00;98978.44;5015695;28;20049;-92
2023/07/20 02:55:39;;;;;;;4.80;3.70;;;;;;;17.95;100.00;98999.69;5017865;28;20075;-91
2023/07/20 02:58:04;;;;;;;6.82;4.18;;;;;;;17.92;100.00;98998.13;5017728;28;20022;-90
2023/07/20 03:00:30;;;;;;;7.30;4.13;;;;;;;17.99;100.00;99002.84;5017783;28;20437;-91
2023/07/20 03:02:55;;;;;;;5.60;4.03;;;;;;;17.99;100.00;99008.94;5017485;28;20025;-90
2023/07/20 03:05:25;;;;;;;4.63;3.60;;;;;;;17.96;100.00;98998.69;5017528;28;20028;-90
2023/07/20 03:07:51;;;;;;;4.35;3.60;;;;;;;18.02;100.00;99013.97;5017805;28;20177;-90
2023/07/20 03:10:16;;;;;;;5.15;3.70;;;;;;;17.94;100.00;99006.72;5034083;28;20123;-90
2023/07/20 03:12:41;;;;;;;5.55;3.65;;;;;;;17.99;100.00;99008.13;5017703;28;20017;-91
2023/07/20 03:15:08;;;;;;;5.35;3.90;;;;;;;17.91;100.00;99007.00;5017487;28;20021;-90
2023/07/20 03:17:33;;;;;;;5.53;3.63;;;;;;;18.02;100.00;99015.75;5017397;28;20053;-90
2023/07/20 03:19:59;;;;;;;5.85;4.28;;;;;;;17.79;100.00;98979.09;5017686;28;20025;-90
2023/07/20 03:22:25;;;;;;;5.20;3.80;;;;;;;17.99;100.00;98998.41;5017329;28;20032;-90
2023/07/20 03:24:51;;;;;;;6.88;4.15;;;;;;;17.99;100.00;99014.22;5017399;28;20022;-91
2023/07/20 03:27:16;;;;;;;5.40;3.83;;;;;;;17.92;100.00;99005.22;5024531;28;20025;-90
2023/07/20 03:29:41;;;;;;;4.47;3.83;;;;;;;18.00;100.00;99012.44;5037062;28;20116;-90
2023/07/20 03:32:07;;;;;;;6.28;4.20;;;;;;;18.02;100.00;99011.31;5036876;28;20070;-91
2023/07/20 03:34:33;;;;;;;6.07;3.90;;;;;;;17.99;100.00;98998.41;5037059;28;20028;-90
2023/07/20 03:36:59;;;;;;;4.88;4.03;;;;;;;17.97;100.00;99010.06;5054884;28;20606;-90
2023/07/20 03:39:24;;;;;;;4.28;3.80;;;;;;;17.94;100.00;99013.78;5037009;28;20039;-91
2023/07/20 03:41:50;;;;;;;4.82;3.47;;;;;;;17.85;100.00;98996.16;5036733;28;20104;-91
2023/07/20 03:44:15;;;;;;;5.18;4.35;;;;;;;17.92;100.00;99008.66;5036280;28;20052;-90
2023/07/20 03:46:40;;;;;;;8.10;4.53;;;;;;;17.82;100.00;98993.78;5036701;28;20477;-90
2023/07/20 03:49:06;;;;;;;4.68;3.80;;;;;;;17.90;100.00;99002.69;5036492;28;20475;-89
2023/07/20 03:51:32;;;;;;;6.05;3.83;;;;;;;17.74;100.00;98978.66;5036545;28;20102;-90
2023/07/20 03:53:57;;;;;;;6.00;4.30;;;;;;;17.85;100.00;98994.34;5036475;28;20464;-90
2023/07/20 03:56:24;;;;;;;4.95;3.85;;;;;;;17.96;100.00;98998.69;5036120;28;20484;-90
2023/07/20 03:58:49;;;;;;;6.38;4.50;;;;;;;17.97;100.00;99000.34;5054129;28;20021;-90
2023/07/20 04:01:16;;;;;;;4.30;3.90;;;;;;;18.00;100.00;99008.00;5035925;28;20044;-89
2023/07/20 04:03:42;;;;;;;5.35;4.18;;;;;;;18.00;100.00;99012.44;5035215;28;20029;-90
2023/07/20 04:06:08;;;;;;;5.70;4.30;;;;;;;17.97;100.00;99013.53;5035533;28;20047;-90
2023/07/20 04:08:33;;;;;;;5.07;4.45;;;;;;;18.00;100.00;99021.19;5036057;28;20071;-90
2023/07/20 04:11:01;;;;;;;5.63;3.88;;;;;;;17.98;100.00;99020.47;5036015;28;20029;-90
2023/07/20 04:13:27;;;;;;;5.50;4.55;;;;;;;17.87;100.00;99008.25;5053592;28;20045;-89
2023/07/20 04:15:53;;;;;;;5.63;4.10;;;;;;;18.01;100.00;99022.84;5053569;28;20053;-90
2023/07/20 04:18:18;;;;;;;5.72;4.28;;;;;;;17.99;100.00;99016.03;5053523;28;20029;-89
2023/07/20 04:20:43;;;;;;;4.32;3.92;;;;;;;18.10;100.00;99035.22;5053732;28;20025;-90
2023/07/20 04:23:09;;;;;;;4.97;4.10;;;;;;;18.03;100.00;99005.09;5011088;28;20034;-89
2023/07/20 04:25:38;;;;;;;6.43;4.80;;;;;;;18.13;100.00;99013.88;4995186;28;20041;-90
2023/07/20 04:28:08;;;;;;;6.20;4.90;;;;;;;18.08;100.00;99015.25;4995094;28;20367;-90
2023/07/20 04:30:35;;;;;;;4.93;4.43;;;;;;;18.07;100.00;99021.47;4995086;28;20030;-89
2023/07/20 04:33:00;;;;;;;5.65;4.15;;;;;;;18.23;100.00;99028.88;4994927;28;20413;-89
2023/07/20 04:35:44;;;;;;;6.85;5.10;;;;;;;18.60;100.00;99050.16;4994756;28;20044;-89
2023/07/20 04:38:09;;;;;;;6.38;4.80;;;;;;;18.67;100.00;99035.47;4994590;28;20033;-90
2023/07/20 04:40:35;;;;;;;5.97;4.32;;;;;;;18.84;100.00;99044.53;4994857;28;20132;-89
2023/07/20 04:43:00;;;;;;;7.25;4.80;;;;;;;18.83;100.00;99045.47;4994805;28;20163;-90
2023/07/20 04:45:25;;;;;;;6.78;4.95;;;;;;;18.88;100.00;99064.38;4994511;28;20608;-89
2023/07/20 04:47:51;;;;;;;6.72;4.90;;;;;;;18.78;100.00;99058.25;4994830;28;20401;-90
2023/07/20 04:50:16;;;;;;;5.20;4.65;;;;;;;18.72;100.00;99056.19;4994649;28;20618;-90
2023/07/20 04:52:41;;;;;;;5.40;4.63;;;;;;;18.72;100.00;99059.66;4994816;28;20026;-90
2023/07/20 04:55:07;;;;;;;6.57;5.07;;;;;;;18.69;100.00;99062.53;5031139;28;20083;-90
2023/07/20 04:57:33;;;;;;;5.07;4.57;;;;;;;18.67;100.00;99059.22;5035425;28;20052;-89
2023/07/20 04:59:58;;;;;;;5.75;5.15;;;;;;;18.72;100.00;99062.28;5035906;28;20052;-90
2023/07/20 05:02:24;;;;;;;6.78;4.90;;;;;;;18.77;100.00;99070.63;5034918;28;20025;-90
2023/07/20 05:04:49;;;;;;;9.60;5.55;;;;;;;18.81;100.00;99069.38;5034902;28;20061;-90
2023/07/20 05:07:14;;;;;;;6.05;4.65;;;;;;;18.88;100.00;99072.31;5034866;28;20492;-90
2023/07/20 05:09:40;;;;;;;6.60;4.82;;;;;;;19.04;100.00;99080.47;5034825;28;20111;-89
2023/07/20 05:12:05;;;;;;;7.25;5.68;;;;;;;19.33;100.00;99069.91;5052752;28;20044;-88
2023/07/20 05:14:31;;;;;;;6.85;5.40;;;;;;;19.61;100.00;99065.56;5052439;28;20071;-89
2023/07/20 05:16:56;;;;;;;7.15;4.97;;;;;;;19.71;100.00;99078.75;5052012;28;20048;-88
2023/07/20 05:19:21;;;;;;;7.63;5.15;;;;;;;19.65;100.00;99074.88;5034523;28;20107;-89
2023/07/20 05:21:47;;;;;;;7.15;4.32;;;;;;;19.52;100.00;99066.41;5052556;28;20028;-90
2023/07/20 05:24:12;;;;;;;6.03;5.38;;;;;;;19.62;100.00;99093.66;5034195;28;20021;-90
2023/07/20 05:26:38;;;;;;;6.43;4.97;;;;;;;19.60;100.00;99097.41;5034535;28;20021;-90
2023/07/20 05:29:03;;;;;;;4.78;4.35;;;;;;;19.50;100.00;99078.06;5034575;28;20029;-90
2023/07/20 05:31:30;;;;;;;7.82;4.75;;;;;;;19.44;100.00;99093.53;5034240;28;20521;-89
2023/07/20 05:33:55;;;;;;;6.97;4.68;;;;;;;19.25;100.00;99075.03;5034463;28;20017;-89
2023/07/20 05:36:21;;;;;;;6.85;5.15;;;;;;;19.31;100.00;99100.06;5052038;28;20024;-89
2023/07/20 05:38:46;;;;;;;7.65;5.13;;;;;;;19.15;100.00;99076.88;5034356;28;20021;-88
2023/07/20 05:41:11;;;;;;;6.68;5.10;;;;;;;19.07;100.00;99066.19;5052076;28;20108;-88
2023/07/20 05:43:37;;;;;;;5.53;4.90;;;;;;;19.23;100.00;99092.84;5052186;28;20024;-89
2023/07/20 05:46:02;;;;;;;7.18;5.18;;;;;;;19.31;100.00;99102.72;5052179;28;20104;-88
2023/07/20 05:48:27;;;;;;;5.82;4.95;;;;;;;19.33;100.00;99090.19;5034109;28;20025;-88
2023/07/20 05:50:53;;;;;;;5.07;4.60;;;;;;;19.50;100.00;99086.81;5052082;28;20045;-88
2023/07/20 05:53:19;;;;;;;8.60;5.25;;;;;;;19.74;100.00;99088.22;5033884;28;20237;-88
2023/07/20 05:55:44;;;;;;;9.43;5.65;;;;;;;19.92;100.00;99095.22;5052069;28;20039;-88
2023/07/20 05:58:09;;;;;;;9.48;5.80;;;;;;;20.06;100.00;99095.75;5034113;28;20031;-88
2023/07/20 06:00:35;;;;;;;7.03;5.22;;;;;;;20.25;100.00;99097.47;5034012;28;20021;-88
2023/07/20 06:03:00;;;;;;;7.55;5.47;;;;;;;20.37;100.00;99091.00;5051906;28;20419;-88
2023/07/20 06:05:25;;;;;;;8.43;5.20;;;;;;;20.47;100.00;99094.41;5033775;28;20064;-88
2023/07/20 06:07:51;;;;;;;8.00;5.53;;;;;;;20.52;100.00;99110.75;5051931;28;20029;-88
2023/07/20 06:10:16;;;;;;;5.00;4.50;;;;;;;20.44;100.00;99098.22;5033877;28;20024;-88
2023/07/20 06:12:41;;;;;;;5.55;4.95;;;;;;;20.36;100.00;99099.94;5051997;28;20028;-88
2023/07/20 06:15:25;;;;;;;5.80;4.43;;;;;;;20.28;100.00;99102.47;5051919;28;20465;-88
2023/07/20 06:17:50;;;;;;;5.20;4.55;;;;;;;20.13;100.00;99096.81;5014026;28;20033;-88
2023/07/20 06:20:15;;;;;;;5.72;4.45;;;;;;;20.11;100.00;99107.56;5031633;28;20530;-88
2023/07/20 06:22:41;;;;;;;6.30;5.35;;;;;;;20.08;100.00;99107.00;5013973;28;20492;-88
2023/07/20 06:25:06;;;;;;;5.47;4.18;;;;;;;19.97;100.00;99097.44;5031730;28;20018;-88
2023/07/20 06:27:31;;;;;;;6.30;4.63;;;;;;;19.93;100.00;99102.19;5014801;28;20061;-88
2023/07/20 06:29:57;;;;;;;8.05;4.63;;;;;;;19.89;100.00;99106.09;5018094;28;20022;-89
2023/07/20 06:32:22;;;;;;;5.85;4.90;;;;;;;19.89;100.00;99115.84;5017820;28;20025;-88
2023/07/20 06:34:48;;;;;;;4.60;4.20;;;;;;;19.72;100.00;99100.72;5035812;28;20021;-88
2023/07/20 06:37:13;;;;;;;5.35;4.65;;;;;;;19.65;100.00;99096.00;5018236;28;20430;-88
2023/07/20 06:39:38;;;;;;;5.05;4.05;;;;;;;19.79;100.00;99131.72;5035730;28;20083;-88
2023/07/20 06:42:04;;;;;;;7.45;4.65;;;;;;;19.69;100.00;99112.41;5035858;28;20037;-88
2023/07/20 06:44:29;;;;;;;6.00;4.47;;;;;;;19.73;100.00;99112.97;5035285;28;20112;-88
2023/07/20 06:46:55;;;;;;;6.63;4.60;;;;;;;19.79;100.00;99131.72;5017818;28;20025;-88
2023/07/20 06:49:27;;;;;;;6.00;4.68;;;;;;;19.93;100.00;99143.63;5017644;28;20029;-88
2023/07/20 06:51:53;;;;;;;7.22;4.60;;;;;;;19.96;100.00;99134.59;5035419;28;20029;-88
2023/07/20 06:54:18;;;;;;;7.80;5.43;;;;;;;19.96;100.00;99118.72;5017464;28;20099;-88
2023/07/20 06:56:43;;;;;;;6.22;4.57;;;;;;;20.11;100.00;99104.91;5017665;28;20036;-88
2023/07/20 06:59:09;;;;;;;4.30;3.88;;;;;;;20.86;100.00;99123.34;5017597;28;20037;-88
2023/07/20 07:01:34;;;;;;;7.20;5.15;;;;;;;21.11;100.00;99119.94;5035040;28;20159;-88
2023/07/20 07:03:59;;;;;;;7.57;4.60;;;;;;;21.29;99.22;99127.03;5017519;28;20116;-88
2023/07/20 07:06:25;;;;;;;7.07;4.57;;;;;;;21.36;97.80;99130.75;5034997;28;20115;-88
2023/07/20 07:08:50;;;;;;;5.25;4.35;;;;;;;21.60;96.43;99122.19;5017370;28;20068;-88
2023/07/20 07:11:15;;;;;;;6.20;4.07;;;;;;;21.86;95.10;99128.31;5034978;28;20108;-88
2023/07/20 07:13:41;;;;;;;6.57;4.53;;;;;;;22.22;94.71;99136.19;5035112;28;20018;-88
2023/07/20 07:16:06;;;;;;;4.60;4.20;;;;;;;23.02;92.42;99146.44;5023274;28;20053;-87
2023/07/20 07:18:31;;;;;;;10.07;4.25;;;;;;;23.75;88.15;99129.69;5054768;28;20025;-87
2023/07/20 07:20:57;;;;;;;6.00;4.25;;;;;;;24.50;85.08;99127.50;5054893;28;20036;-87
2023/07/20 07:23:22;;;;;;;5.47;4.00;;;;;;;24.98;81.59;99140.72;5054570;28;20074;-82
2023/07/20 07:25:47;;;;;;;4.72;4.22;;;;;;;25.06;79.66;99135.34;5054860;28;20017;-82
2023/07/20 07:28:13;;;;;;;6.57;5.97;;;;;;;23.81;83.62;99147.66;5054841;28;20377;-80
2023/07/20 07:30:38;;;;;;;8.50;5.72;;;;;;;23.65;85.21;99140.53;5054625;28;20504;-81
2023/07/20 07:33:04;;;;;;;4.63;4.15;;;;;;;23.30;85.67;99145.16;5054815;28;20478;-79
2023/07/20 07:35:29;;;;;;;5.57;4.32;;;;;;;22.88;86.74;99118.63;5054278;28;20036;-82
2023/07/20 07:37:55;;;;;;;5.68;4.15;;;;;;;24.35;86.23;99140.66;5054530;28;20025;-82
2023/07/20 07:40:20;;;;;;;6.35;4.20;;;;;;;25.97;79.69;99110.44;5054198;28;20152;-82
2023/07/20 07:42:45;;;;;;;5.43;4.10;;;;;;;27.32;74.88;99134.88;5054596;28;20029;-81
2023/07/20 07:45:11;;;;;;;5.13;4.25;;;;;;;27.31;72.68;99133.25;5054438;28;20058;-81
2023/07/20 07:47:36;;;;;;;4.63;3.92;;;;;;;26.48;72.83;99121.22;5054202;28;20063;-81
2023/07/20 07:50:02;;;;;;;4.20;3.80;;;;;;;25.69;74.63;99123.53;5053488;28;20039;-82
2023/07/20 07:52:28;;;;;;;4.05;3.65;;;;;;;25.01;75.93;99113.72;5050894;28;20021;-82
2023/07/20 07:54:53;;;;;;;4.10;3.70;;;;;;;24.59;77.10;99122.97;5053777;28;20376;-82
2023/07/20 07:57:18;;;;;;;4.88;3.78;;;;;;;24.22;79.47;99142.22;5053502;28;20539;-82
2023/07/20 07:59:44;;;;;;;4.18;3.78;;;;;;;23.57;81.14;99124.53;5052771;28;20029;-82
2023/07/20 08:02:09;;;;;;;5.38;3.90;;;;;;;23.28;83.65;99135.66;5053799;28;20023;-82
2023/07/20 08:04:35;;;;;;;4.10;3.70;;;;;;;22.84;85.36;99096.91;5053358;28;20032;-82
2023/07/20 08:07:02;;;;;;;5.53;4.18;;;;;;;23.22;85.24;99139.81;5053660;28;20025;-83
2023/07/20 08:09:28;;;;;;;3.90;3.38;;;;;;;23.79;82.16;99105.25;5053474;28;20051;-85
2023/07/20 08:11:53;;;;;;;3.67;3.38;;;;;;;24.13;79.40;99091.69;5053796;28;20028;-85
2023/07/20 08:14:19;;;;;;;3.00;2.70;;;;;;;24.21;78.65;99117.44;5053179;28;20036;-85
2023/07/20 08:16:45;;;;;;;4.82;3.17;;;;;;;24.46;79.41;99122.69;5052647;28;20095;-85
2023/07/20 08:19:10;;;;;;;4.47;2.90;;;;;;;24.63;77.85;99130.44;5052216;28;20025;-85
2023/07/20 08:21:36;;;;;;;3.15;2.85;;;;;;;24.49;76.96;99143.66;5052678;28;20112;-85
2023/07/20 08:24:01;;;;;;;3.38;3.08;;;;;;;24.12;77.15;99145.91;5053359;28;20158;-84
2023/07/20 08:26:26;;;;;;;2.92;2.60;;;;;;;23.61;78.82;99133.84;5052393;28;20108;-84
2023/07/20 08:28:52;;;;;;;3.13;2.55;;;;;;;23.13;80.05;99122.19;5051680;28;20025;-85
2023/07/20 08:31:18;;;;;;;2.70;2.50;;;;;;;23.06;79.75;99147.78;5051997;28;20025;-85
2023/07/20 08:33:43;;;;;;;3.60;2.50;;;;;;;23.10;79.52;99139.31;5053125;28;20017;-82
2023/07/20 08:36:08;;;;;;;2.72;2.45;;;;;;;23.32;78.62;99148.47;5052697;28;20040;-83
2023/07/20 08:38:34;;;;;;;2.75;2.50;;;;;;;23.17;77.24;99134.16;5052884;28;20025;-84
2023/07/20 08:41:01;;;;;;;3.05;2.60;;;;;;;23.21;77.63;99143.47;5053051;28;20035;-85
2023/07/20 08:43:27;;;;;;;3.17;2.38;;;;;;;23.24;78.55;99151.09;5053078;28;20115;-84
2023/07/20 08:45:55;;;;;;;3.05;2.72;;;;;;;23.24;79.32;99145.78;5052961;28;20576;-84
2023/07/20 08:48:21;;;;;;;2.60;2.28;;;;;;;23.40;77.81;99142.31;5052647;28;20476;-84
2023/07/20 08:50:52;;;;;;;2.72;2.47;;;;;;;23.59;77.13;99130.50;5052269;28;20063;-84
2023/07/20 08:53:18;;;;;;;3.40;2.72;;;;;;;23.99;74.14;99150.09;5052965;28;20021;-84
2023/07/20 08:55:49;;;;;;;2.95;2.63;;;;;;;23.97;72.93;99136.13;5052872;28;20044;-82
2023/07/20 08:58:15;;;;;;;3.13;2.67;;;;;;;24.12;74.37;99155.72;5052796;28;20112;-82
2023/07/20 09:00:41;;;;;;;2.90;2.58;;;;;;;23.85;74.24;99139.16;5052418;28;20115;-85
2023/07/20 09:03:08;;;;;;;3.25;2.95;;;;;;;23.82;75.20;99144.81;5052184;28;20106;-85
2023/07/20 09:05:35;;;;;;;3.35;2.85;;;;;;;23.87;74.90;99153.09;5052461;28;20040;-83
2023/07/20 09:08:00;;;;;;;3.15;2.70;;;;;;;23.69;74.47;99107.28;5052807;28;20021;-83
2023/07/20 09:10:26;;;;;;;2.92;2.67;;;;;;;24.04;73.65;99139.78;5000675;28;20064;-84
2023/07/20 09:12:51;;;;;;;2.55;2.25;;;;;;;24.00;73.36;99125.16;5053106;28;20028;-83
2023/07/20 09:15:17;;;;;;;2.53;1.88;;;;;;;23.93;72.67;99101.06;5052570;28;20036;-84
2023/07/20 09:17:47;;;;;;;3.08;2.80;;;;;;;24.01;71.77;99117.00;5052065;28;20041;-84
2023/07/20 09:20:14;;;;;;;2.33;2.13;;;;;;;24.13;72.06;99138.75;5052870;28;20079;-84
2023/07/20 09:22:39;;;;;;;2.42;2.10;;;;;;;24.05;71.98;99109.50;5052431;28;20053;-84
2023/07/20 09:25:13;;;;;;;3.85;2.30;;;;;;;24.26;71.55;99136.38;5052629;28;20063;-84
2023/07/20 09:27:43;;;;;;;2.28;2.05;;;;;;;24.03;69.61;99093.72;5052259;28;20566;-84
2023/07/20 09:30:12;;;;;;;2.03;1.92;;;;;;;24.10;68.88;99091.19;5052429;28;20021;-84
2023/07/20 09:32:40;;;;;;;2.10;1.90;;;;;;;24.30;67.68;99113.75;5052371;28;20031;-83
2023/07/20 09:35:06;;;;;;;2.65;1.80;;;;;;;24.56;70.07;99139.28;5052454;28;20057;-83
2023/07/20 09:37:33;;;;;;;2.00;1.75;;;;;;;24.47;68.09;99101.22;5052096;28;20064;-85
2023/07/20 09:39:59;;;;;;;1.95;1.63;;;;;;;24.57;65.92;99109.84;5052208;28;20071;-85
2023/07/20 09:42:26;;;;;;;2.78;2.05;;;;;;;24.62;65.69;99109.31;5052035;28;20028;-85
2023/07/20 09:44:52;;;;;;;1.98;1.50;;;;;;;24.61;65.41;99110.31;5052399;28;20017;-85
2023/07/20 09:47:24;;;;;;;2.05;1.52;;;;;;;24.68;65.44;99127.25;5052567;28;20079;-84
2023/07/20 09:49:54;;;;;;;1.70;1.60;;;;;;;24.62;65.36;99107.47;5052284;28;20024;-85
2023/07/20 09:52:21;;;;;;;2.45;1.65;;;;;;;24.63;65.37;99114.44;5052112;28;20025;-85
2023/07/20 09:54:46;;;;;;;1.85;1.73;;;;;;;24.57;65.37;99103.69;5051735;28;20108;-85
2023/07/20 09:57:13;;;;;;;2.00;1.50;;;;;;;24.69;64.25;99112.91;5052019;28;20075;-84
2023/07/20 09:59:39;;;;;;;1.75;1.60;;;;;;;24.80;65.19;99127.69;5052048;28;20021;-85
2023/07/20 10:02:16;;;;;;;2.50;1.55;;;;;;;24.64;64.88;99092.13;5052224;28;20046;-84
2023/07/20 10:04:43;;;;;;;2.35;1.95;;;;;;;24.82;64.23;99123.03;5051883;28;20033;-85
2023/07/20 10:07:13;;;;;;;1.95;1.75;;;;;;;24.87;64.55;99115.34;5033932;28;20619;-84
2023/07/20 10:09:39;;;;;;;1.70;1.60;;;;;;;24.85;64.28;99110.16;5051614;28;20025;-85
2023/07/20 10:12:07;;;;;;;3.10;1.70;;;;;;;24.72;62.88;99104.59;5034184;28;20032;-87
2023/07/20 10:14:38;;;;;;;2.17;1.73;;;;;;;24.71;63.83;99089.63;5051672;28;20032;-84
2023/07/20 10:17:06;;;;;;;2.00;1.80;;;;;;;24.82;64.65;99101.72;5051140;28;20523;-85
2023/07/20 10:19:41;;;;;;;2.50;2.22;;;;;;;24.79;63.74;99073.59;5051120;28;20472;-85
2023/07/20 10:22:17;;;;;;;2.10;1.90;;;;;;;24.93;64.03;99095.97;5050740;28;20480;-85
2023/07/20 10:24:45;;;;;;;3.70;2.28;;;;;;;25.09;64.10;99116.38;5050808;28;20029;-86
2023/07/20 10:27:11;;;;;;;2.60;2.08;;;;;;;25.15;64.39;99102.31;5051057;28;20112;-85
2023/07/20 10:29:37;;;;;;;1.95;1.60;;;;;;;25.16;64.26;99103.16;5050722;28;20112;-85
2023/07/20 10:32:03;;;;;;;1.70;1.60;;;;;;;24.93;62.77;99079.16;5049863;28;20029;-85
2023/07/20 10:34:29;;;;;;;2.47;1.60;;;;;;;24.92;63.18;99094.31;5050150;28;20028;-85
2023/07/20 10:36:54;;;;;;;1.88;1.70;;;;;;;24.87;63.70;99081.53;5049977;28;20167;-85
2023/07/20 10:39:28;;;;;;;1.65;1.55;;;;;;;24.96;63.41;99084.97;5050349;28;20029;-84
2023/07/20 10:42:06;;;;;;;3.45;2.13;;;;;;;24.94;62.56;99084.28;5050449;28;20032;-84
2023/07/20 10:44:32;;;;;;;1.90;1.75;;;;;;;25.00;63.33;99098.75;5050242;28;20122;-84
2023/07/20 10:47:02;;;;;;;1.90;1.80;;;;;;;24.74;63.38;99077.78;5050031;28;20484;-84
2023/07/20 10:49:28;;;;;;;1.90;1.80;;;;;;;24.68;63.90;99095.28;5050271;28;20095;-85
2023/07/20 10:52:04;;;;;;;1.98;1.80;;;;;;;24.59;64.54;99096.34;5050407;28;20358;-84
2023/07/20 10:54:30;;;;;;;1.65;1.55;;;;;;;24.64;64.19;99108.13;5050105;28;20432;-83
2023/07/20 10:56:57;;;;;;;1.70;1.60;;;;;;;24.57;64.63;99077.06;5049994;28;20045;-83
2023/07/20 10:59:25;;;;;;;2.85;1.60;;;;;;;24.73;64.17;99110.75;5049924;28;20036;-85
2023/07/20 11:01:55;;;;;;;2.10;1.63;;;;;;;24.70;64.50;99097.78;5049441;28;20045;-85
2023/07/20 11:04:45;;;;;;;1.52;1.42;;;;;;;24.80;65.84;99111.69;5050022;28;20396;-85
2023/07/20 11:07:15;;;;;;;2.47;1.60;;;;;;;24.81;65.12;99098.19;5049699;28;20152;-83
2023/07/20 11:09:42;;;;;;;1.75;1.52;;;;;;;24.96;64.35;99106.28;5049801;28;20114;-84
2023/07/20 11:12:13;;;;;;;1.95;1.52;;;;;;;24.96;63.70;99110.78;5049809;28;20025;-84
2023/07/20 11:14:57;;;;;;;1.50;1.40;;;;;;;24.80;62.81;99133.00;5052343;28;20029;-84
2023/07/20 11:17:31;;;;;;;1.13;1.10;;;;;;;24.51;62.88;99109.69;5013943;28;1153375;-84
2023/07/20 11:19:58;;;;;;;1.40;1.30;;;;;;;24.34;64.43;99103.59;5054677;28;20044;-84
2023/07/20 11:22:23;;;;;;;1.20;1.00;;;;;;;24.44;64.59;99132.69;5054465;28;20036;-84
2023/07/20 11:24:49;;;;;;;1.40;1.30;;;;;;;24.15;64.26;99103.00;5054367;28;20036;-83
2023/07/20 11:27:15;;;;;;;1.30;1.20;;;;;;;24.02;65.21;99105.38;5054764;28;20404;-83